• Join FlightAware (Why Join?)
  • Login
  • US Flag 
10:20PM EDT


 

Airport Tracker/Info


-or-


 

Live Flight TrackerFlight Track Log ✈ AMF9313 ✈ 16-Oct-2013 ✈ KSDF - KMQY

Flight Track Log - Related Links

Times and Time Zones

All times are in EDT time to prevent confusion due to time zone crossing. See the AMF9313 flight status page for this flight to view local times or setup timezone preferences in your user account.

Time Position Orientation Groundspeed Altitude Reporting Facility
EDT Latitude Longitude Course Direction KTS MPH feet Rate Location/Type
10:08PM 38.1333 -85.8000 233° Southwest 166 191 5,000  Level Louisville TRACON
10:10PM 38.1167 -85.8681 253° West 158 182 7,900 2,160 Climbing Indianapolis Center
10:11PM 38.0981 -85.9217 246° West 162 186 10,100 1,080 Climbing Indianapolis Center
10:12PM 38.0508 -85.9722 220° Southwest 212 244 10,100 -60 Level Indianapolis Center
10:13PM 37.8477 -85.8577 190° South  Level Estimated
10:13PM 38.0083 -86.0311 228° Southwest 222 255 10,000  Level Indianapolis Center
10:14PM 37.8136 -85.9150 233° Southwest  Level FlightAware Approximate
10:14PM 37.9761 -86.0994 239° Southwest 225 259 10,000  Level Indianapolis Center
10:15PM 37.9381 -86.1644 233° Southwest 227 261 10,000  Level Indianapolis Center
10:16PM 37.8992 -86.2267 232° Southwest 226 260 10,000  Level Indianapolis Center
10:17PM 37.8392 -86.2561 201° Southwest 230 265 10,000  Level Indianapolis Center
10:18PM 37.7744 -86.2781 195° South 237 273 10,000  Level Indianapolis Center
10:19PM 37.7086 -86.2942 191° South 239 275 10,000  Level Indianapolis Center
10:20PM 37.6433 -86.3078 189° South 237 273 10,000  Level Indianapolis Center
10:21PM 37.5786 -86.3269 193° South 237 273 10,000  Level Indianapolis Center
10:22PM 37.5033 -86.3458 191° South 234 269 10,000  Level Indianapolis Center
10:23PM 37.4383 -86.3583 189° South 234 269 10,000  Level Indianapolis Center
10:24PM 37.3739 -86.3772 193° South 234 269 10,000  Level Indianapolis Center
10:25PM 37.3083 -86.3942 192° South 237 273 10,000  Level Indianapolis Center
10:26PM 37.2431 -86.4106 191° South 238 274 10,000 -300 Level Indianapolis Center
10:27PM 37.1772 -86.4225 188° South 238 274 9,500 -720 Descending Indianapolis Center
10:28PM 37.1036 -86.4250 182° South 257 296 8,600 -720 Descending Indianapolis Center
10:29PM 37.0336 -86.4311 184° South 253 291 8,100 -300 Descending Indianapolis Center
10:30PM 36.9664 -86.4381 185° South 241 277 8,100  Level Indianapolis Center
10:31PM 36.9028 -86.4475 187° South 231 266 8,100  Level Indianapolis Center
10:32PM 36.8369 -86.4517 183° South 233 268 8,100  Level Indianapolis Center
10:33PM 36.7703 -86.4561 183° South 236 272 8,100  Level Indianapolis Center
10:34PM 36.7050 -86.4531 178° South 234 269 8,100 -120 Level Indianapolis Center
10:35PM 36.6369 -86.4497 178° South 235 270 7,900 -600 Descending Memphis Center
10:36PM 36.5661 -86.4506 181° South 235 270 6,900 -1,020 Descending Memphis Center
10:37PM 36.4950 -86.4489 179° South 250 288 5,900 -960 Descending Memphis Center
10:38PM 36.4264 -86.4469 179° South 255 293 5,000 -540 Descending Memphis Center
10:39PM 36.3575 -86.4453 179° South 248 285 4,900  Descending Memphis Center
10:40PM 36.2886 -86.4433 179° South 242 278 5,000  Climbing Memphis Center
10:41PM 36.2236 -86.4361 175° South 237 273 4,900 -60 Descending Memphis Center
10:42PM 36.1611 -86.4339 178° South 237 273 4,900 -720 Level Memphis Center
10:43PM 36.1003 -86.4267 175° South 232 267 3,500 -960 Descending Memphis Center
10:44PM 36.0436 -86.4089 166° South 222 255 3,000 -300 Descending Memphis Center
10:45PM 35.9947 -86.3856 159° South 203 234 3,000  Level Memphis Center
10:46PM 35.9483 -86.3622 158° South 188 216 3,000  Level Memphis Center
10:48PM 35.8833 -86.3667 183° South 179 206 3,000 -240 Level Nashville TRACON
10:49PM 35.9167 -86.4167 309° West 177 204 2,500 -660 Descending Nashville TRACON
10:50PM 35.9500 -86.4500 321° Northwest 140 161 1,700 -720 Descending Nashville TRACON
10:51PM 35.9833 -86.4833 321° Northwest 120 138 1,100 -600 Descending Nashville TRACON